Forside
METAR-TAF:

METAR-TAF

Lufthavne :

Beauvais, Frankrig

Breddekreds: 49-28N, længdekreds: 002-07E, højde: 109 m

Aktuelle vejr

Denne rapport blev lavet for 28 minutter siden, kl. 14:00 UTC
Vind 15 kt fra østnordøst, varierende mellem nordnordøst og øst
Temperatur 11°C
Fugtighed 43%
Tryk 1026 hPa
Sigt 10 km eller mere
ingen skyer under 1500m og ingen cumulonimbus

METAR: LFOB 311400Z AUTO 06015KT 020V090 CAVOK 11/M01 Q1026 NOSIG

Tid: 16:28 (14:28 UTC)

Vejrudsigter

Denne rapport blev lavet for 3 timer og 28 minutter siden, kl. 11:00 UTC
Foreløbig gælder fra 31 på 12 UTC til 01 på 12 UTC
Vind 15 kt fra nordøst
Sigt 10 km eller mere
Spredte skyer i en højde af 3000 ft
ændring
fra 01 på 00 UTC til 01 på 03 UTC
Vind 2 kt fra varierende retninger

TAF: LFOB 311100Z 3112/0112 05015KT 9999 SCT030 BECMG 0100/0103 VRB02KT

Vejrobservationer og prognoser fra mere end 4000 lufthavne (METAR og TAF).

De gule og røde prikker repræsenterer de meteorologiske stationer.

Flyt musen over at se navnet på stationen.

Så klik over at se vejr observationer og prognoser.

At skifte det kort: Klik på de grønne knapper med et sort kors for at zoome ind; på den grønne knap med en bindestreg for at zoome ud; eller på de grønne pile for tilstødende kort.


METAR-TAF: